Time;durP1;ratioP1;P1;durP2;ratioP2;P2;SDS_P1;SDS_P2;PMS_P1;PMS_P2;Temp;Humidity;BMP_temperature;BMP_pressure;BME280_temperature;BME280_humidity;BME280_pressure;Samples;Min_cycle;Max_cycle;Signal;HPM_P1;HPM_P2
2021/01/07 12:13:18;;;;;;;78.10;25.38;;;5.00;99.90;;;;;;5036714;28;20373;-74
2021/01/07 12:15:48;;;;;;;83.55;25.38;;;5.20;99.90;;;;;;5024605;28;20038;-74
2021/01/07 12:18:16;;;;;;;88.93;28.98;;;5.60;99.90;;;;;;5007900;28;20628;-75
2021/01/07 12:20:43;;;;;;;78.05;26.17;;;5.90;99.90;;;;;;4991806;28;20022;-74
2021/01/07 12:23:09;;;;;;;68.22;24.15;;;6.10;99.90;;;;;;5005278;28;20129;-75
2021/01/07 12:25:41;;;;;;;64.38;21.70;;;6.60;99.90;;;;;;5004596;28;20099;-75
2021/01/07 12:28:07;;;;;;;64.30;23.88;;;6.90;99.90;;;;;;4987865;28;20102;-75
2021/01/07 12:30:47;;;;;;;66.63;22.40;;;7.10;99.90;;;;;;5001838;28;20034;-76
2021/01/07 12:33:48;;;;;;;64.50;23.08;;;7.40;99.90;;;;;;5003574;28;20125;-74
2021/01/07 12:36:32;;;;;;;63.58;22.58;;;7.40;99.90;;;;;;4999894;28;20045;-74
2021/01/07 12:39:28;;;;;;;63.20;22.58;;;7.60;99.90;;;;;;4986715;28;20034;-75
2021/01/07 12:41:55;;;;;;;61.47;21.52;;;7.70;99.90;;;;;;5004556;28;20043;-75
2021/01/07 12:44:23;;;;;;;62.45;21.60;;;7.70;99.90;;;;;;5002468;28;20053;-74
2021/01/07 12:46:55;;;;;;;52.78;21.35;;;7.70;99.90;;;;;;4996616;28;20097;-76
2021/01/07 12:49:25;;;;;;;59.42;22.40;;;7.70;99.90;;;;;;4961319;28;20046;-76
2021/01/07 12:51:51;;;;;;;56.70;21.23;;;7.70;99.90;;;;;;4965714;28;20084;-76
2021/01/07 12:54:18;;;;;;;57.55;20.67;;;7.70;99.90;;;;;;4967964;28;20038;-75
2021/01/07 12:57:13;;;;;;;52.28;21.05;;;7.80;99.90;;;;;;4966155;28;20077;-76
2021/01/07 12:59:59;;;;;;;50.10;18.67;;;7.70;99.90;;;;;;4981387;28;20030;-73
2021/01/07 13:02:57;;;;;;;33.40;13.73;;;7.60;99.90;;;;;;4958876;28;20049;-73
2021/01/07 13:05:29;;;;;;;32.17;13.13;;;7.50;99.90;;;;;;4987821;28;20058;-75
2021/01/07 13:08:03;;;;;;;34.58;14.00;;;7.60;99.90;;;;;;4988124;28;20027;-73
2021/01/07 13:10:30;;;;;;;38.38;14.52;;;7.70;99.90;;;;;;4981141;28;20059;-74
2021/01/07 13:12:59;;;;;;;39.88;13.82;;;7.80;99.90;;;;;;4985436;28;20019;-76
2021/01/07 13:15:26;;;;;;;31.92;12.07;;;7.90;99.90;;;;;;4986613;28;20042;-76
2021/01/07 13:17:51;;;;;;;30.33;11.38;;;7.80;99.90;;;;;;4969174;28;20019;-73
2021/01/07 14:57:39;;;;;;;28.65;11.48;;;5.40;99.90;;;;;;5124918;27;20907;-72
2021/01/07 15:00:06;;;;;;;31.40;12.80;;;5.40;99.90;;;;;;5104421;27;20490;-73
2021/01/07 15:02:38;;;;;;;35.70;12.45;;;5.80;99.90;;;;;;5083886;28;20082;-71
2021/01/07 15:05:22;;;;;;;25.02;11.02;;;6.10;99.90;;;;;;5080541;28;20038;-73
2021/01/07 15:08:09;;;;;;;32.03;12.52;;;6.40;99.90;;;;;;5078687;28;20027;-72
2021/01/07 15:10:43;;;;;;;35.38;11.93;;;6.70;99.90;;;;;;5080559;28;20475;-77
2021/01/07 15:13:17;;;;;;;30.98;10.95;;;6.90;99.90;;;;;;5066140;28;20055;-75
2021/01/07 15:15:53;;;;;;;29.08;11.60;;;6.90;99.90;;;;;;5065893;28;20093;-75
2021/01/07 15:18:30;;;;;;;33.00;11.93;;;7.00;99.90;;;;;;5079503;28;20055;-74
2021/01/07 15:21:03;;;;;;;24.90;10.45;;;7.00;99.90;;;;;;5070702;28;20036;-77
2021/01/07 15:24:17;;;;;;;24.25;10.23;;;6.90;99.90;;;;;;5098102;28;20512;-76
2021/01/07 15:27:04;;;;;;;24.50;10.05;;;6.90;99.90;;;;;;5069193;28;20517;-77
2021/01/07 15:29:47;;;;;;;34.08;10.52;;;6.90;99.90;;;;;;5093273;28;20382;-75
2021/01/07 15:32:28;;;;;;;23.95;10.18;;;6.80;99.90;;;;;;5082645;28;20082;-74
2021/01/07 15:35:03;;;;;;;25.85;10.13;;;6.80;99.90;;;;;;5081304;28;20029;-75
